Time;durP1;ratioP1;P1;durP2;ratioP2;P2;SDS_P1;SDS_P2;PMS_P1;PMS_P2;Temp;Humidity;BMP_temperature;BMP_pressure;BME280_temperature;BME280_humidity;BME280_pressure;Samples;Min_cycle;Max_cycle;Signal;HPM_P1;HPM_P2
2021/12/01 00:00:55;;;;;;;6.60;2.00;;;;;;;;;;4993270;28;20371;-68
2021/12/01 00:03:21;;;;;;;4.85;1.80;;;;;;;;;;4994672;28;20419;-68
2021/12/01 00:05:46;;;;;;;4.90;1.83;;;;;;;;;;5001015;28;20344;-68
2021/12/01 00:08:12;;;;;;;5.78;1.85;;;;;;;;;;4974881;28;20370;-68
2021/12/01 00:10:38;;;;;;;5.38;1.73;;;;;;;;;;4992409;28;20508;-68
2021/12/01 00:13:05;;;;;;;5.40;2.28;;;;;;;;;;4992837;28;20495;-67
2021/12/01 00:15:31;;;;;;;4.10;1.80;;;;;;;;;;4991998;28;20036;-68
2021/12/01 00:17:56;;;;;;;2.33;1.30;;;;;;;;;;4993357;28;20435;-68
2021/12/01 00:20:22;;;;;;;4.05;1.83;;;;;;;;;;4992445;28;20455;-68
2021/12/01 00:22:48;;;;;;;7.45;1.70;;;;;;;;;;4992245;28;20098;-68
2021/12/01 00:25:16;;;;;;;3.53;1.73;;;;;;;;;;4991810;28;20099;-68
2021/12/01 00:27:42;;;;;;;3.22;1.35;;;;;;;;;;4974624;28;20317;-68
2021/12/01 00:30:09;;;;;;;3.45;1.38;;;;;;;;;;4991837;28;20154;-68
2021/12/01 00:32:34;;;;;;;3.33;1.35;;;;;;;;;;4973878;28;20470;-68
2021/12/01 00:35:01;;;;;;;4.00;1.80;;;;;;;;;;4991898;28;20119;-68
2021/12/01 00:37:27;;;;;;;4.50;1.55;;;;;;;;;;4973991;28;20350;-68
2021/12/01 00:39:52;;;;;;;5.15;2.38;;;;;;;;;;4992240;28;20362;-68
2021/12/01 00:42:20;;;;;;;1.83;1.38;;;;;;;;;;4992270;28;20444;-68
2021/12/01 00:44:53;;;;;;;4.50;2.22;;;;;;;;;;4992058;28;20454;-68
2021/12/01 00:47:18;;;;;;;3.65;1.50;;;;;;;;;;4992351;28;20443;-68
2021/12/01 00:49:44;;;;;;;5.57;1.42;;;;;;;;;;4991454;28;20560;-69
2021/12/01 00:52:09;;;;;;;3.45;1.50;;;;;;;;;;4989397;28;20579;-68
2021/12/01 00:54:35;;;;;;;5.95;2.55;;;;;;;;;;4989882;28;20408;-68
2021/12/01 00:57:00;;;;;;;6.80;2.10;;;;;;;;;;4992146;28;20305;-68
2021/12/01 00:59:26;;;;;;;2.55;1.38;;;;;;;;;;4972967;28;20383;-68
2021/12/01 01:01:52;;;;;;;5.38;2.30;;;;;;;;;;4972131;28;20372;-68
2021/12/01 01:04:17;;;;;;;2.53;1.40;;;;;;;;;;4972308;28;20451;-68
2021/12/01 01:06:43;;;;;;;5.82;1.80;;;;;;;;;;4990489;28;20442;-68
2021/12/01 01:09:09;;;;;;;3.47;1.30;;;;;;;;;;4990665;28;20475;-67
2021/12/01 01:17:06;;;;;;;5.55;1.90;;;;;;;;;;4991065;28;20450;-68
2021/12/01 01:19:34;;;;;;;3.25;1.38;;;;;;;;;;4989933;28;20430;-68
2021/12/01 01:22:00;;;;;;;2.90;1.38;;;;;;;;;;4990364;28;20447;-67
2021/12/01 01:24:27;;;;;;;3.47;1.42;;;;;;;;;;4972439;28;20440;-68
2021/12/01 01:26:52;;;;;;;3.72;1.67;;;;;;;;;;4990280;28;20355;-67
2021/12/01 01:29:21;;;;;;;5.43;1.85;;;;;;;;;;4990206;28;20052;-67
2021/12/01 01:31:48;;;;;;;6.03;1.45;;;;;;;;;;4990602;28;20379;-68
2021/12/01 01:34:13;;;;;;;4.50;1.45;;;;;;;;;;4989921;28;20379;-67
2021/12/01 01:36:39;;;;;;;4.32;1.30;;;;;;;;;;4989811;28;20400;-67
2021/12/01 01:39:04;;;;;;;5.15;1.80;;;;;;;;;;4989949;28;20348;-67
2021/12/01 01:41:30;;;;;;;4.20;1.40;;;;;;;;;;4971690;28;20029;-67
2021/12/01 01:43:55;;;;;;;3.28;1.45;;;;;;;;;;4989751;28;20115;-67
2021/12/01 01:46:21;;;;;;;2.65;1.40;;;;;;;;;;4990369;28;20025;-67
2021/12/01 01:48:56;;;;;;;8.57;1.48;;;;;;;;;;4950023;28;1148128;-68
2021/12/01 01:51:24;;;;;;;2.30;0.98;;;;;;;;;;4990713;28;20370;-68
2021/12/01 01:53:53;;;;;;;2.78;1.20;;;;;;;;;;4990327;28;20447;-67
2021/12/01 01:56:19;;;;;;;2.70;1.35;;;;;;;;;;4990479;28;20474;-67
2021/12/01 01:58:45;;;;;;;3.83;1.42;;;;;;;;;;4992269;28;20025;-68
2021/12/01 02:01:22;;;;;;;4.15;1.33;;;;;;;;;;4991724;28;20056;-67
2021/12/01 02:03:48;;;;;;;4.85;1.58;;;;;;;;;;4990306;28;20734;-68
2021/12/01 02:06:21;;;;;;;4.40;1.30;;;;;;;;;;4990296;28;20441;-67
2021/12/01 02:08:47;;;;;;;2.60;1.20;;;;;;;;;;4992090;28;20490;-67
2021/12/01 02:11:12;;;;;;;3.72;1.45;;;;;;;;;;4990662;28;20367;-67
2021/12/01 02:13:39;;;;;;;3.70;1.30;;;;;;;;;;4988956;28;20458;-67
2021/12/01 02:16:04;;;;;;;2.47;0.82;;;;;;;;;;4972691;28;20106;-67
2021/12/01 02:18:30;;;;;;;3.25;1.00;;;;;;;;;;4990018;28;20024;-67
2021/12/01 02:21:01;;;;;;;3.28;1.38;;;;;;;;;;4990177;28;20029;-67
2021/12/01 02:23:27;;;;;;;3.63;1.08;;;;;;;;;;4989747;28;20440;-67
2021/12/01 02:25:52;;;;;;;1.67;0.95;;;;;;;;;;4989815;28;20391;-67
2021/12/01 02:28:18;;;;;;;2.97;1.17;;;;;;;;;;4991095;28;20511;-67
2021/12/01 02:30:43;;;;;;;4.30;2.08;;;;;;;;;;4991309;28;20364;-67
2021/12/01 02:33:08;;;;;;;3.80;1.08;;;;;;;;;;4990877;28;20319;-67
2021/12/01 02:35:34;;;;;;;2.42;1.20;;;;;;;;;;4989352;28;20379;-67
2021/12/01 02:38:01;;;;;;;3.63;1.17;;;;;;;;;;4989633;28;20348;-67
2021/12/01 02:40:27;;;;;;;2.17;0.90;;;;;;;;;;4991202;28;20331;-67
2021/12/01 02:42:53;;;;;;;2.67;1.17;;;;;;;;;;4990124;28;20367;-67
2021/12/01 02:45:18;;;;;;;1.75;0.90;;;;;;;;;;4991308;28;20379;-66
2021/12/01 02:47:43;;;;;;;2.15;1.13;;;;;;;;;;4971209;28;20507;-67
2021/12/01 02:50:09;;;;;;;1.63;0.90;;;;;;;;;;4986814;28;20555;-67
2021/12/01 02:52:35;;;;;;;1.40;0.73;;;;;;;;;;4988983;28;20319;-67
2021/12/01 02:55:06;;;;;;;1.73;1.15;;;;;;;;;;4989246;28;20363;-70
2021/12/01 02:57:47;;;;;;;4.38;1.52;;;;;;;;;;4971440;28;20415;-68
2021/12/01 03:00:13;;;;;;;2.47;1.33;;;;;;;;;;4989320;28;20432;-66
2021/12/01 03:02:39;;;;;;;5.80;1.40;;;;;;;;;;4971487;28;20178;-68
2021/12/01 03:05:05;;;;;;;2.13;1.10;;;;;;;;;;4989021;28;20024;-66
2021/12/01 03:07:32;;;;;;;3.47;1.30;;;;;;;;;;4971788;28;20468;-67
2021/12/01 03:09:57;;;;;;;1.50;0.88;;;;;;;;;;4989117;28;20402;-67
2021/12/01 03:12:27;;;;;;;1.77;0.93;;;;;;;;;;4991202;28;20361;-67
2021/12/01 03:14:53;;;;;;;1.80;0.93;;;;;;;;;;4988594;28;20459;-67
2021/12/01 03:17:18;;;;;;;3.00;0.88;;;;;;;;;;4990378;28;20426;-67
2021/12/01 03:19:43;;;;;;;3.90;1.08;;;;;;;;;;4988796;28;20104;-67
2021/12/01 03:22:12;;;;;;;2.78;1.00;;;;;;;;;;4971563;28;20103;-67
2021/12/01 03:24:38;;;;;;;2.30;1.30;;;;;;;;;;4989179;28;20450;-66
2021/12/01 03:27:03;;;;;;;1.98;0.98;;;;;;;;;;4989969;28;20479;-67
2021/12/01 03:29:29;;;;;;;3.72;1.20;;;;;;;;;;4988974;28;20440;-67
2021/12/01 03:31:55;;;;;;;1.20;0.82;;;;;;;;;;4988918;28;20339;-67
2021/12/01 03:34:22;;;;;;;1.75;0.88;;;;;;;;;;4988557;28;20452;-67
2021/12/01 03:36:47;;;;;;;1.80;1.10;;;;;;;;;;4990156;28;20502;-67
2021/12/01 03:39:12;;;;;;;2.33;1.30;;;;;;;;;;4988638;28;20440;-67
2021/12/01 03:41:38;;;;;;;2.75;1.17;;;;;;;;;;4987785;28;20052;-66
2021/12/01 03:44:04;;;;;;;3.05;1.00;;;;;;;;;;4989344;28;20029;-67
2021/12/01 03:46:29;;;;;;;4.18;1.17;;;;;;;;;;4988422;28;20414;-67
2021/12/01 03:48:54;;;;;;;3.30;1.58;;;;;;;;;;4988344;28;20444;-67
2021/12/01 03:51:20;;;;;;;1.77;0.60;;;;;;;;;;4988754;28;20357;-67
2021/12/01 03:53:45;;;;;;;1.00;0.68;;;;;;;;;;4988742;28;20396;-67
2021/12/01 03:56:10;;;;;;;1.45;0.80;;;;;;;;;;4989007;28;20443;-67
2021/12/01 03:58:36;;;;;;;1.90;0.88;;;;;;;;;;4988440;28;20037;-67
2021/12/01 04:01:01;;;;;;;2.10;0.80;;;;;;;;;;4988865;28;20468;-67
2021/12/01 04:03:27;;;;;;;1.25;0.70;;;;;;;;;;4990231;28;20374;-67
2021/12/01 04:05:52;;;;;;;5.03;1.35;;;;;;;;;;4988313;28;20390;-67
2021/12/01 04:08:17;;;;;;;2.28;0.85;;;;;;;;;;4988224;28;20364;-67
2021/12/01 04:10:43;;;;;;;3.35;0.93;;;;;;;;;;4988390;28;20412;-67
2021/12/01 04:13:08;;;;;;;3.00;0.77;;;;;;;;;;4988236;28;20056;-67
2021/12/01 04:15:34;;;;;;;1.75;0.95;;;;;;;;;;4970432;28;20524;-67
2021/12/01 04:17:59;;;;;;;1.88;0.80;;;;;;;;;;4988177;28;20553;-66
2021/12/01 04:20:25;;;;;;;3.28;0.98;;;;;;;;;;4988306;28;20083;-67
2021/12/01 04:22:50;;;;;;;2.15;0.88;;;;;;;;;;4988273;28;20313;-67
2021/12/01 04:25:16;;;;;;;0.95;0.80;;;;;;;;;;4988371;28;20317;-67
2021/12/01 04:27:42;;;;;;;4.20;1.00;;;;;;;;;;4988279;28;20491;-69
2021/12/01 04:30:09;;;;;;;2.45;1.13;;;;;;;;;;4989810;28;20434;-67
2021/12/01 04:32:35;;;;;;;0.98;0.75;;;;;;;;;;4988142;28;20440;-67
2021/12/01 04:35:01;;;;;;;4.55;1.00;;;;;;;;;;4988333;28;20442;-67
2021/12/01 04:37:27;;;;;;;2.45;0.77;;;;;;;;;;4972562;28;20332;-67
2021/12/01 04:39:53;;;;;;;1.63;0.88;;;;;;;;;;4993189;28;20394;-67
2021/12/01 04:42:19;;;;;;;3.67;0.90;;;;;;;;;;4991623;28;20079;-67
2021/12/01 04:44:45;;;;;;;3.35;1.50;;;;;;;;;;4991702;28;20072;-66
2021/12/01 04:47:14;;;;;;;3.72;1.17;;;;;;;;;;4991499;28;20113;-67
2021/12/01 04:49:39;;;;;;;3.08;1.42;;;;;;;;;;4991963;28;20363;-67
2021/12/01 04:52:07;;;;;;;3.25;1.58;;;;;;;;;;4991904;28;20383;-67
2021/12/01 04:54:33;;;;;;;4.15;1.17;;;;;;;;;;4991750;28;20413;-67
2021/12/01 04:57:00;;;;;;;3.33;1.40;;;;;;;;;;4989972;28;20391;-66
2021/12/01 04:59:26;;;;;;;1.67;0.88;;;;;;;;;;4991655;28;20028;-67
2021/12/01 05:01:54;;;;;;;3.65;1.30;;;;;;;;;;4991494;28;20094;-66
2021/12/01 05:04:21;;;;;;;2.05;1.20;;;;;;;;;;4991734;28;20359;-67
2021/12/01 05:06:46;;;;;;;2.30;1.42;;;;;;;;;;4991259;28;20677;-67
2021/12/01 05:09:12;;;;;;;1.65;0.98;;;;;;;;;;4991296;28;20498;-67
2021/12/01 05:11:38;;;;;;;3.60;1.20;;;;;;;;;;4991218;28;20450;-67
2021/12/01 05:14:03;;;;;;;3.90;1.30;;;;;;;;;;4990913;28;20462;-68
2021/12/01 05:16:30;;;;;;;2.50;1.42;;;;;;;;;;4991107;28;21082;-66
2021/12/01 05:18:56;;;;;;;2.35;1.52;;;;;;;;;;4991078;28;20447;-67
2021/12/01 05:21:21;;;;;;;3.72;1.48;;;;;;;;;;4990915;28;20417;-67
2021/12/01 05:23:47;;;;;;;3.40;1.35;;;;;;;;;;4990968;28;20082;-67
2021/12/01 05:26:13;;;;;;;2.25;1.00;;;;;;;;;;4989315;28;20436;-68
2021/12/01 05:28:39;;;;;;;2.97;1.33;;;;;;;;;;4991108;28;20305;-66
2021/12/01 05:31:05;;;;;;;2.47;1.25;;;;;;;;;;4973522;28;20371;-67
2021/12/01 05:33:31;;;;;;;1.98;1.20;;;;;;;;;;4990865;28;20033;-67
2021/12/01 05:35:56;;;;;;;2.60;1.10;;;;;;;;;;4989528;28;20416;-67
2021/12/01 05:38:21;;;;;;;1.65;1.05;;;;;;;;;;4973889;28;20464;-67
2021/12/01 05:40:49;;;;;;;2.47;1.00;;;;;;;;;;4991799;28;20033;-67
2021/12/01 05:43:15;;;;;;;2.78;0.93;;;;;;;;;;4991580;28;20118;-67
2021/12/01 05:45:41;;;;;;;2.25;1.00;;;;;;;;;;4991251;28;20107;-66
2021/12/01 05:48:06;;;;;;;4.60;1.23;;;;;;;;;;4990273;28;20444;-66
2021/12/01 05:50:31;;;;;;;1.75;0.85;;;;;;;;;;4990231;28;20490;-67
2021/12/01 05:52:57;;;;;;;2.80;1.05;;;;;;;;;;4972566;28;20060;-66
2021/12/01 05:55:22;;;;;;;3.33;1.45;;;;;;;;;;4990424;28;20343;-67
2021/12/01 05:57:47;;;;;;;3.22;1.77;;;;;;;;;;4990364;28;20410;-67
2021/12/01 06:00:14;;;;;;;3.38;1.10;;;;;;;;;;4990013;28;20347;-67
2021/12/01 06:02:42;;;;;;;2.10;1.00;;;;;;;;;;4990710;28;20321;-67
2021/12/01 06:05:08;;;;;;;2.97;1.13;;;;;;;;;;4973200;28;20467;-67
2021/12/01 06:07:33;;;;;;;3.10;1.30;;;;;;;;;;4989703;28;20619;-67
2021/12/01 06:10:01;;;;;;;2.85;1.08;;;;;;;;;;4990196;28;20344;-66
2021/12/01 06:12:27;;;;;;;1.67;1.00;;;;;;;;;;4989849;28;20344;-67
2021/12/01 06:14:53;;;;;;;1.88;1.17;;;;;;;;;;4989783;28;20710;-67
2021/12/01 06:17:19;;;;;;;4.88;1.38;;;;;;;;;;4988852;28;20416;-66
2021/12/01 06:19:44;;;;;;;2.85;1.23;;;;;;;;;;4991494;28;20339;-67
2021/12/01 06:22:09;;;;;;;1.10;0.85;;;;;;;;;;4991580;28;20362;-66
2021/12/01 06:24:36;;;;;;;2.00;1.10;;;;;;;;;;4989874;28;20404;-67
2021/12/01 06:27:02;;;;;;;2.08;1.10;;;;;;;;;;4989715;28;20313;-66
2021/12/01 06:29:27;;;;;;;4.20;1.48;;;;;;;;;;4972579;28;20083;-67
2021/12/01 06:31:52;;;;;;;4.10;1.00;;;;;;;;;;4972042;28;20170;-67
2021/12/01 06:34:18;;;;;;;2.45;1.00;;;;;;;;;;4989697;28;20535;-66
2021/12/01 06:36:43;;;;;;;2.30;1.10;;;;;;;;;;4990057;28;20375;-66
2021/12/01 06:39:09;;;;;;;3.05;1.55;;;;;;;;;;4990300;28;20324;-67
2021/12/01 06:41:34;;;;;;;2.38;1.25;;;;;;;;;;4971617;28;20387;-66
2021/12/01 06:44:00;;;;;;;1.42;1.02;;;;;;;;;;4989337;28;20398;-66
2021/12/01 06:46:26;;;;;;;3.17;1.48;;;;;;;;;;4990701;28;20340;-67
2021/12/01 06:48:51;;;;;;;3.33;1.13;;;;;;;;;;4988868;28;20447;-67
2021/12/01 06:51:17;;;;;;;1.85;1.20;;;;;;;;;;4989372;28;20403;-67
2021/12/01 06:53:43;;;;;;;3.25;1.58;;;;;;;;;;4989694;28;20463;-67
2021/12/01 06:56:09;;;;;;;1.33;0.93;;;;;;;;;;4988795;28;20467;-67
2021/12/01 06:58:35;;;;;;;2.22;0.90;;;;;;;;;;4989349;28;20467;-67
2021/12/01 07:01:02;;;;;;;2.03;1.13;;;;;;;;;;4989756;28;20461;-66
2021/12/01 07:03:27;;;;;;;2.67;1.40;;;;;;;;;;4989344;28;20332;-67
2021/12/01 07:05:53;;;;;;;2.33;1.45;;;;;;;;;;4971062;28;20376;-67
2021/12/01 07:08:18;;;;;;;3.13;1.38;;;;;;;;;;4989502;28;20348;-67
2021/12/01 07:10:43;;;;;;;4.78;1.63;;;;;;;;;;4989786;28;20056;-67
2021/12/01 07:13:10;;;;;;;2.35;1.17;;;;;;;;;;4971562;28;20490;-66
2021/12/01 07:15:35;;;;;;;3.03;1.58;;;;;;;;;;4988861;28;20317;-67
2021/12/01 07:18:01;;;;;;;3.88;1.50;;;;;;;;;;4989007;28;20347;-67
2021/12/01 07:20:26;;;;;;;4.30;1.75;;;;;;;;;;4988920;28;20454;-67
2021/12/01 07:22:51;;;;;;;5.22;2.25;;;;;;;;;;4988839;28;20025;-68
2021/12/01 07:25:17;;;;;;;4.30;1.65;;;;;;;;;;4989547;28;20463;-67
2021/12/01 07:27:43;;;;;;;3.72;1.80;;;;;;;;;;4988920;28;20325;-66
2021/12/01 07:30:09;;;;;;;3.70;1.88;;;;;;;;;;4955342;28;20355;-67
2021/12/01 07:32:34;;;;;;;4.80;2.35;;;;;;;;;;4989005;28;20470;-67
2021/12/01 07:35:00;;;;;;;3.95;1.70;;;;;;;;;;4989269;28;20375;-67
2021/12/01 07:37:25;;;;;;;5.20;2.00;;;;;;;;;;4988609;28;20378;-67
2021/12/01 07:39:51;;;;;;;4.85;2.38;;;;;;;;;;4989660;28;20443;-66
2021/12/01 07:42:17;;;;;;;4.80;2.00;;;;;;;;;;4988783;28;20440;-68
2021/12/01 07:44:42;;;;;;;5.80;2.50;;;;;;;;;;4988535;28;20580;-66
2021/12/01 07:47:08;;;;;;;4.55;2.05;;;;;;;;;;4988666;28;20487;-67
2021/12/01 07:49:34;;;;;;;8.02;2.88;;;;;;;;;;4987968;28;20363;-67
2021/12/01 07:52:00;;;;;;;2.75;1.90;;;;;;;;;;4988788;28;20511;-66
2021/12/01 07:54:25;;;;;;;5.25;2.60;;;;;;;;;;4986989;28;20033;-67
2021/12/01 07:56:50;;;;;;;6.07;3.03;;;;;;;;;;4990011;28;20383;-67
2021/12/01 07:59:16;;;;;;;5.90;2.97;;;;;;;;;;4988967;28;20393;-66
2021/12/01 08:01:43;;;;;;;4.32;2.58;;;;;;;;;;4988458;28;20459;-67
2021/12/01 08:04:09;;;;;;;5.72;2.75;;;;;;;;;;4989574;28;20431;-66
2021/12/01 08:06:35;;;;;;;5.95;2.78;;;;;;;;;;4988868;28;20316;-67
2021/12/01 08:09:02;;;;;;;4.88;2.50;;;;;;;;;;4988075;28;20025;-67
2021/12/01 08:11:28;;;;;;;4.75;2.45;;;;;;;;;;4989476;28;20364;-67
2021/12/01 08:13:53;;;;;;;5.22;2.85;;;;;;;;;;4993537;28;20447;-67
2021/12/01 08:16:19;;;;;;;7.30;2.80;;;;;;;;;;4992531;28;20324;-66
2021/12/01 08:18:45;;;;;;;5.55;3.17;;;;;;;;;;4991967;28;20459;-66
2021/12/01 08:21:10;;;;;;;7.68;2.70;;;;;;;;;;4992243;28;20025;-67
2021/12/01 08:23:35;;;;;;;6.35;2.88;;;;;;;;;;4990481;28;20497;-67
2021/12/01 08:26:01;;;;;;;4.30;2.50;;;;;;;;;;4993995;28;20371;-66
2021/12/01 08:28:26;;;;;;;7.18;3.30;;;;;;;;;;4991747;28;20396;-67
2021/12/01 08:30:51;;;;;;;5.07;2.72;;;;;;;;;;4992696;28;20368;-67
2021/12/01 08:33:17;;;;;;;6.20;2.75;;;;;;;;;;4991658;28;20350;-67
2021/12/01 08:35:42;;;;;;;7.63;3.83;;;;;;;;;;4991909;28;20468;-66
2021/12/01 08:38:07;;;;;;;6.35;3.05;;;;;;;;;;4991727;28;20414;-67
2021/12/01 08:40:34;;;;;;;6.32;3.05;;;;;;;;;;4990904;28;20355;-67
2021/12/01 08:42:59;;;;;;;6.15;3.28;;;;;;;;;;4992547;28;20358;-67
2021/12/01 08:45:24;;;;;;;9.82;2.92;;;;;;;;;;4991894;28;20325;-67
2021/12/01 08:47:50;;;;;;;6.97;3.13;;;;;;;;;;4991574;28;20465;-67
2021/12/01 08:50:15;;;;;;;5.22;2.88;;;;;;;;;;4991318;28;20123;-68
2021/12/01 08:52:41;;;;;;;8.52;3.63;;;;;;;;;;4991854;28;20110;-67
2021/12/01 08:55:07;;;;;;;8.18;3.90;;;;;;;;;;4991559;28;20440;-67
2021/12/01 08:57:33;;;;;;;5.93;2.95;;;;;;;;;;4973347;28;20493;-67
2021/12/01 08:59:58;;;;;;;7.70;3.80;;;;;;;;;;4991719;28;20319;-67
2021/12/01 09:02:24;;;;;;;7.45;4.28;;;;;;;;;;4991569;28;20037;-67
2021/12/01 09:04:52;;;;;;;6.75;3.55;;;;;;;;;;4991842;28;20325;-67
2021/12/01 09:07:18;;;;;;;8.23;4.00;;;;;;;;;;4992186;28;20440;-66
2021/12/01 09:09:44;;;;;;;10.88;3.90;;;;;;;;;;4991425;28;20126;-67
2021/12/01 09:12:10;;;;;;;8.43;3.33;;;;;;;;;;4992870;28;20080;-67
2021/12/01 09:14:35;;;;;;;6.68;3.75;;;;;;;;;;4990985;28;20382;-67
2021/12/01 09:17:00;;;;;;;7.03;3.40;;;;;;;;;;4991044;28;20378;-69
2021/12/01 09:19:26;;;;;;;7.32;4.07;;;;;;;;;;4973151;28;20371;-67
2021/12/01 09:21:51;;;;;;;7.05;3.25;;;;;;;;;;4992541;28;20332;-68
2021/12/01 09:24:18;;;;;;;10.07;3.58;;;;;;;;;;4972888;28;20383;-67
2021/12/01 09:26:44;;;;;;;6.15;3.40;;;;;;;;;;4973297;28;20379;-68
2021/12/01 09:29:09;;;;;;;7.55;3.13;;;;;;;;;;4991358;28;20401;-67
2021/12/01 09:31:35;;;;;;;7.32;3.17;;;;;;;;;;4990959;28;20079;-67
2021/12/01 09:34:00;;;;;;;5.45;2.83;;;;;;;;;;4973347;28;20410;-68
2021/12/01 09:36:26;;;;;;;5.20;2.70;;;;;;;;;;4991251;28;20439;-67
2021/12/01 09:38:51;;;;;;;10.27;3.08;;;;;;;;;;4990534;28;20437;-67
2021/12/01 09:41:17;;;;;;;6.28;2.75;;;;;;;;;;4990935;28;20351;-67
2021/12/01 09:43:42;;;;;;;6.53;2.92;;;;;;;;;;4992076;28;20475;-67
2021/12/01 09:53:02;;;;;;;5.57;2.88;;;;;;;;;;4990544;28;20087;-68
2021/12/01 09:55:27;;;;;;;8.75;3.13;;;;;;;;;;4992021;28;20028;-67
2021/12/01 09:57:59;;;;;;;7.82;3.40;;;;;;;;;;4972404;28;20435;-68
2021/12/01 10:00:24;;;;;;;7.68;3.50;;;;;;;;;;4990765;28;20389;-67
2021/12/01 10:02:50;;;;;;;5.20;2.47;;;;;;;;;;4972163;28;20328;-67
2021/12/01 10:05:59;;;;;;;6.40;3.25;;;;;;;;;;4990185;28;20021;-67
2021/12/01 10:08:45;;;;;;;8.77;3.35;;;;;;;;;;4991501;28;20332;-69
2021/12/01 10:11:16;;;;;;;9.18;3.60;;;;;;;;;;4990122;28;20335;-67
2021/12/01 10:14:18;;;;;;;8.23;3.63;;;;;;;;;;4972198;28;20435;-68
2021/12/01 10:16:44;;;;;;;5.57;2.92;;;;;;;;;;4939770;28;20049;-67
2021/12/01 10:19:12;;;;;;;7.85;3.42;;;;;;;;;;4989911;28;20405;-68
2021/12/01 10:21:40;;;;;;;7.97;3.80;;;;;;;;;;4972045;28;20430;-68
2021/12/01 10:24:14;;;;;;;6.23;2.37;;;;;;;;;;4990644;28;20048;-68
2021/12/01 10:26:52;;;;;;;8.35;3.35;;;;;;;;;;4972340;28;20450;-68
2021/12/01 10:29:27;;;;;;;7.07;3.40;;;;;;;;;;4990369;28;20533;-67
2021/12/01 10:31:54;;;;;;;5.35;2.72;;;;;;;;;;4991419;28;20025;-67
2021/12/01 10:34:30;;;;;;;8.48;3.95;;;;;;;;;;4988545;28;20029;-67
2021/12/01 10:37:28;;;;;;;6.95;3.40;;;;;;;;;;4991242;28;20453;-67
2021/12/01 10:40:11;;;;;;;8.45;3.53;;;;;;;;;;4989232;28;20470;-67
2021/12/01 10:42:53;;;;;;;5.93;3.40;;;;;;;;;;4972115;28;20496;-67
2021/12/01 10:45:21;;;;;;;5.65;3.15;;;;;;;;;;4990174;28;20317;-67
2021/12/01 10:47:47;;;;;;;9.93;3.43;;;;;;;;;;4971868;28;20065;-68
2021/12/01 10:50:18;;;;;;;6.43;3.33;;;;;;;;;;4961562;28;20114;-68
2021/12/01 10:52:51;;;;;;;8.85;2.97;;;;;;;;;;4952922;28;20387;-68
2021/12/01 10:55:19;;;;;;;11.00;3.85;;;;;;;;;;4969917;28;20384;-67
2021/12/01 10:57:57;;;;;;;4.68;2.45;;;;;;;;;;4951927;28;20463;-68
2021/12/01 11:00:38;;;;;;;7.85;3.60;;;;;;;;;;4969687;28;20417;-68
2021/12/01 11:03:12;;;;;;;5.90;3.10;;;;;;;;;;4971280;28;20567;-68
2021/12/01 11:05:42;;;;;;;6.10;3.42;;;;;;;;;;4969988;28;20383;-68
2021/12/01 11:08:14;;;;;;;7.97;3.30;;;;;;;;;;4952496;28;20529;-68
2021/12/01 11:10:40;;;;;;;8.65;3.78;;;;;;;;;;4951643;28;20387;-68
2021/12/01 11:13:06;;;;;;;11.43;4.35;;;;;;;;;;4951921;28;20431;-68
2021/12/01 11:15:52;;;;;;;6.95;3.20;;;;;;;;;;4951746;28;20475;-68
2021/12/01 11:18:31;;;;;;;8.00;3.45;;;;;;;;;;4970762;28;20334;-68
2021/12/01 11:21:19;;;;;;;5.47;3.40;;;;;;;;;;4969723;28;20432;-68
2021/12/01 11:24:12;;;;;;;9.90;3.78;;;;;;;;;;4952278;28;20336;-68
2021/12/01 11:26:44;;;;;;;6.70;3.38;;;;;;;;;;4964388;28;20127;-68
2021/12/01 11:29:12;;;;;;;6.63;3.40;;;;;;;;;;4969180;28;20491;-68
2021/12/01 11:31:40;;;;;;;7.07;3.95;;;;;;;;;;4969850;28;20099;-68
2021/12/01 11:34:08;;;;;;;9.05;3.67;;;;;;;;;;4968860;28;20419;-68
2021/12/01 11:36:36;;;;;;;10.20;3.88;;;;;;;;;;4969897;28;20029;-68
2021/12/01 11:39:07;;;;;;;8.90;3.70;;;;;;;;;;4969392;28;20022;-68
2021/12/01 11:41:36;;;;;;;6.57;2.95;;;;;;;;;;4969081;28;20099;-68
2021/12/01 11:44:02;;;;;;;8.27;3.35;;;;;;;;;;4969517;28;20087;-68
2021/12/01 11:46:30;;;;;;;6.65;3.22;;;;;;;;;;4971960;28;20436;-68
2021/12/01 11:48:57;;;;;;;8.43;3.72;;;;;;;;;;4973348;28;20029;-68
2021/12/01 11:51:36;;;;;;;8.27;3.30;;;;;;;;;;4955167;28;20049;-68
2021/12/01 11:54:08;;;;;;;8.35;3.08;;;;;;;;;;4955764;28;20439;-68
2021/12/01 11:56:36;;;;;;;6.97;2.83;;;;;;;;;;4973396;28;20121;-68
2021/12/01 11:59:05;;;;;;;6.70;2.75;;;;;;;;;;4972743;28;20432;-68
2021/12/01 12:01:30;;;;;;;;;;;;;;;;;;4940686;28;20392;-68
2021/12/01 12:03:59;;;;;;;6.93;2.70;;;;;;;;;;4972871;28;20307;-68
2021/12/01 12:06:26;;;;;;;8.30;3.50;;;;;;;;;;4972682;28;20454;-68
2021/12/01 12:09:08;;;;;;;9.82;3.30;;;;;;;;;;4955109;28;20317;-68
2021/12/01 12:11:39;;;;;;;6.35;3.25;;;;;;;;;;4973578;28;20450;-68
2021/12/01 12:14:26;;;;;;;7.93;2.90;;;;;;;;;;4971161;28;20433;-69
2021/12/01 12:17:00;;;;;;;7.85;3.13;;;;;;;;;;4955170;28;20359;-68
2021/12/01 12:19:50;;;;;;;4.25;3.22;;;;;;;;;;4972868;28;20511;-68
2021/12/01 12:22:22;;;;;;;11.60;3.13;;;;;;;;;;4954985;28;20429;-68
2021/12/01 12:24:53;;;;;;;8.82;3.67;;;;;;;;;;4955362;28;20400;-68
2021/12/01 12:27:45;;;;;;;6.00;3.25;;;;;;;;;;4972706;28;20340;-68
2021/12/01 12:30:29;;;;;;;7.00;2.80;;;;;;;;;;4954567;28;20108;-68
2021/12/01 12:33:21;;;;;;;5.15;2.80;;;;;;;;;;4974185;28;20432;-68
2021/12/01 12:35:49;;;;;;;8.02;2.92;;;;;;;;;;4954312;28;20447;-68
2021/12/01 12:38:15;;;;;;;6.47;3.50;;;;;;;;;;4973700;28;20052;-70
2021/12/01 12:40:41;;;;;;;6.55;3.05;;;;;;;;;;4972237;28;20441;-68
2021/12/01 12:43:12;;;;;;;8.07;3.35;;;;;;;;;;4972711;28;20485;-68
2021/12/01 12:45:39;;;;;;;7.97;2.95;;;;;;;;;;4972634;28;20487;-68
2021/12/01 12:48:32;;;;;;;7.15;3.53;;;;;;;;;;4954598;28;20509;-69
2021/12/01 12:51:06;;;;;;;6.95;3.80;;;;;;;;;;4986988;28;20494;-68
2021/12/01 12:53:31;;;;;;;5.28;3.13;;;;;;;;;;4993503;28;20438;-69
2021/12/01 12:55:56;;;;;;;7.53;3.47;;;;;;;;;;4991663;28;20367;-68
2021/12/01 12:58:34;;;;;;;9.00;3.42;;;;;;;;;;4990608;28;20497;-68
2021/12/01 13:01:00;;;;;;;7.72;4.03;;;;;;;;;;4991594;28;20499;-68
2021/12/01 13:03:26;;;;;;;5.80;3.22;;;;;;;;;;4991975;28;20351;-68
2021/12/01 13:05:54;;;;;;;6.40;3.60;;;;;;;;;;4973737;28;20436;-68
2021/12/01 13:08:25;;;;;;;7.80;3.70;;;;;;;;;;4989427;28;20037;-68
2021/12/01 13:10:51;;;;;;;10.00;3.22;;;;;;;;;;4992398;28;20412;-68
2021/12/01 13:13:35;;;;;;;7.60;3.67;;;;;;;;;;4991274;28;20471;-68
2021/12/01 13:16:03;;;;;;;11.20;3.60;;;;;;;;;;4991217;28;20501;-68
2021/12/01 13:18:33;;;;;;;8.60;3.17;;;;;;;;;;4991741;28;20545;-68
2021/12/01 13:21:01;;;;;;;8.02;3.22;;;;;;;;;;4991410;28;20418;-68
2021/12/01 13:23:30;;;;;;;8.35;3.33;;;;;;;;;;4990939;28;20355;-68
2021/12/01 13:25:59;;;;;;;5.10;2.97;;;;;;;;;;4989732;28;20464;-68
2021/12/01 13:28:36;;;;;;;7.55;3.85;;;;;;;;;;4990968;28;20352;-68
2021/12/01 13:31:05;;;;;;;10.27;3.92;;;;;;;;;;4991746;28;20428;-69
2021/12/01 13:33:31;;;;;;;9.38;3.33;;;;;;;;;;4991067;28;20419;-68
2021/12/01 13:35:57;;;;;;;6.95;3.35;;;;;;;;;;4972765;28;20358;-68
2021/12/01 13:38:35;;;;;;;9.15;4.43;;;;;;;;;;4990321;28;20317;-68
2021/12/01 13:41:10;;;;;;;6.40;3.50;;;;;;;;;;4990979;28;20464;-69
2021/12/01 13:43:36;;;;;;;8.95;3.67;;;;;;;;;;4989170;28;20398;-68
2021/12/01 13:46:03;;;;;;;7.85;3.58;;;;;;;;;;4990763;28;20409;-69
2021/12/01 13:48:28;;;;;;;7.38;3.38;;;;;;;;;;4991078;28;20499;-68
2021/12/01 13:51:05;;;;;;;7.05;3.22;;;;;;;;;;4957410;28;20456;-68
2021/12/01 13:53:30;;;;;;;10.73;4.53;;;;;;;;;;4971674;28;20344;-68
2021/12/01 13:55:57;;;;;;;6.35;3.25;;;;;;;;;;4970666;28;20321;-68
2021/12/01 13:58:22;;;;;;;6.45;3.22;;;;;;;;;;4970650;28;20062;-68
2021/12/01 14:00:51;;;;;;;11.88;5.32;;;;;;;;;;4972178;28;20445;-68
2021/12/01 14:03:17;;;;;;;11.98;4.32;;;;;;;;;;4970250;28;20424;-68
2021/12/01 14:05:49;;;;;;;10.85;4.53;;;;;;;;;;4970707;28;20472;-68
2021/12/01 14:08:30;;;;;;;10.80;5.20;;;;;;;;;;4953037;28;20498;-68
2021/12/01 14:11:22;;;;;;;11.15;4.60;;;;;;;;;;4972500;28;20558;-68
2021/12/01 14:13:51;;;;;;;18.02;6.55;;;;;;;;;;4970218;28;20356;-68
2021/12/01 14:16:20;;;;;;;13.83;5.50;;;;;;;;;;4952831;28;20463;-68
2021/12/01 14:18:45;;;;;;;11.30;5.28;;;;;;;;;;4970697;28;20743;-68
2021/12/01 14:21:16;;;;;;;12.88;5.32;;;;;;;;;;4952580;28;20487;-70
2021/12/01 14:23:50;;;;;;;13.05;5.78;;;;;;;;;;4970500;28;20326;-68
2021/12/01 14:26:17;;;;;;;12.07;5.75;;;;;;;;;;4970571;28;20440;-68
2021/12/01 14:28:44;;;;;;;12.45;5.72;;;;;;;;;;4952342;28;20048;-68
2021/12/01 14:31:10;;;;;;;14.63;5.40;;;;;;;;;;4952344;28;20437;-69
2021/12/01 14:33:36;;;;;;;11.52;4.80;;;;;;;;;;4953458;28;20336;-68
2021/12/01 14:36:06;;;;;;;15.68;5.32;;;;;;;;;;4970623;28;20317;-68
2021/12/01 14:38:33;;;;;;;16.60;5.05;;;;;;;;;;4990096;28;20021;-69
2021/12/01 14:41:00;;;;;;;13.27;4.97;;;;;;;;;;4989925;28;20379;-68
2021/12/01 14:43:31;;;;;;;17.00;5.75;;;;;;;;;;4972002;28;20645;-69
2021/12/01 14:46:09;;;;;;;10.13;5.28;;;;;;;;;;4971760;28;20320;-68
2021/12/01 14:48:35;;;;;;;12.63;5.78;;;;;;;;;;4955060;28;20025;-68
2021/12/01 14:51:00;;;;;;;16.00;5.35;;;;;;;;;;4971230;28;20483;-69
2021/12/01 14:53:33;;;;;;;15.65;5.78;;;;;;;;;;4971128;28;20112;-68
2021/12/01 14:55:59;;;;;;;18.98;6.35;;;;;;;;;;4969883;28;20325;-67
2021/12/01 14:58:24;;;;;;;18.80;5.40;;;;;;;;;;4989215;28;20352;-68
2021/12/01 15:00:55;;;;;;;14.70;5.90;;;;;;;;;;4989402;28;20048;-72